createdAt,value
2018-10-17T00:00:30.600Z,9.19
2018-10-17T00:01:30.442Z,9.15
2018-10-17T00:02:30.524Z,9.27
2018-10-17T00:03:30.451Z,9.2
2018-10-17T00:04:30.541Z,9.23
2018-10-17T00:05:30.674Z,9.17
2018-10-17T00:06:30.454Z,9.18
2018-10-17T00:07:31.015Z,9.18
2018-10-17T00:08:30.448Z,9.15
2018-10-17T00:09:30.415Z,9.06
2018-10-17T00:10:30.487Z,9.14
2018-10-17T00:11:30.466Z,9.12
2018-10-17T00:12:30.446Z,9.21
2018-10-17T00:13:30.507Z,9.17
2018-10-17T00:14:30.413Z,9.15
2018-10-17T00:15:30.418Z,9.05
2018-10-17T00:16:30.390Z,9.03
2018-10-17T00:17:30.459Z,8.98
2018-10-17T00:18:30.387Z,9.05
2018-10-17T00:19:30.393Z,9.15
2018-10-17T00:20:30.393Z,9.09
2018-10-17T00:21:30.582Z,9.01
2018-10-17T00:23:30.459Z,9.21
2018-10-17T00:24:30.505Z,9.14
2018-10-17T00:25:30.381Z,9.1
2018-10-17T00:26:30.398Z,9.12
2018-10-17T00:27:30.412Z,9.16
2018-10-17T00:28:30.355Z,9.07
2018-10-17T00:29:30.411Z,8.99
2018-10-17T00:30:30.386Z,8.97
2018-10-17T00:31:30.726Z,8.92
2018-10-17T00:32:30.485Z,9.03
2018-10-17T00:33:30.373Z,9.01
2018-10-17T00:34:30.389Z,9.11
2018-10-17T00:35:30.354Z,9.02
2018-10-17T00:36:30.361Z,9.11
2018-10-17T00:37:30.371Z,8.95
2018-10-17T00:38:30.367Z,8.94
2018-10-17T00:39:30.332Z,9.02
2018-10-17T00:40:30.884Z,9.09
2018-10-17T00:41:30.391Z,9.21
2018-10-17T00:42:30.357Z,9.17
2018-10-17T00:43:30.350Z,9.08
2018-10-17T00:45:30.363Z,9.16
2018-10-17T00:46:30.397Z,9.19
2018-10-17T00:47:30.367Z,9.11
2018-10-17T00:48:30.345Z,9.18
2018-10-17T00:49:30.348Z,9.17
2018-10-17T00:50:30.439Z,9.16
2018-10-17T00:51:30.372Z,9.12
2018-10-17T00:52:30.402Z,9.17
2018-10-17T00:53:30.358Z,9.1
2018-10-17T00:54:30.430Z,9.11
2018-10-17T00:55:30.371Z,9.07
2018-10-17T00:56:30.473Z,8.95
2018-10-17T00:57:30.349Z,8.96
2018-10-17T00:58:30.749Z,8.9
2018-10-17T00:59:30.330Z,8.99
2018-10-17T01:00:30.735Z,8.94
2018-10-17T01:01:30.534Z,8.99
2018-10-17T01:02:30.590Z,8.86
2018-10-17T01:03:30.365Z,8.82
2018-10-17T01:04:30.691Z,8.76
2018-10-17T01:05:30.372Z,8.75
2018-10-17T01:06:30.398Z,8.79
2018-10-17T01:07:30.489Z,8.83
2018-10-17T01:08:30.355Z,8.81
2018-10-17T01:09:30.346Z,8.78
2018-10-17T01:10:30.473Z,8.97
2018-10-17T01:11:30.348Z,8.95
2018-10-17T01:12:30.414Z,8.96
2018-10-17T01:13:30.320Z,8.98
2018-10-17T01:14:30.428Z,8.9
2018-10-17T01:15:30.326Z,8.93
2018-10-17T01:16:30.477Z,8.98
2018-10-17T01:17:30.451Z,8.94
2018-10-17T01:18:30.789Z,8.91
2018-10-17T01:19:30.564Z,8.86
2018-10-17T01:20:30.421Z,8.83
2018-10-17T01:21:30.314Z,8.88
2018-10-17T01:22:30.303Z,8.84
2018-10-17T01:23:30.285Z,8.87
2018-10-17T01:24:30.347Z,8.87
2018-10-17T01:25:30.603Z,8.8
2018-10-17T01:26:30.489Z,8.81
2018-10-17T01:27:30.321Z,8.86
2018-10-17T01:28:30.329Z,8.82
2018-10-17T01:29:30.340Z,8.81
2018-10-17T01:30:30.417Z,8.84
2018-10-17T01:31:30.402Z,8.96
2018-10-17T01:32:30.308Z,8.85
2018-10-17T01:33:30.477Z,8.94
2018-10-17T01:34:30.297Z,8.94
2018-10-17T01:35:30.368Z,8.8
2018-10-17T01:36:30.527Z,8.88
2018-10-17T01:37:30.398Z,8.88
2018-10-17T01:38:30.501Z,8.93
2018-10-17T01:39:30.683Z,8.88
2018-10-17T01:40:30.392Z,8.92
2018-10-17T01:41:30.337Z,8.78
2018-10-17T01:42:30.555Z,8.75
2018-10-17T01:43:30.388Z,8.71
2018-10-17T01:44:30.407Z,8.9
2018-10-17T01:45:30.309Z,8.77
2018-10-17T01:46:30.357Z,8.74
2018-10-17T01:47:30.400Z,8.67
2018-10-17T01:48:30.443Z,8.69
2018-10-17T01:49:30.336Z,8.72
2018-10-17T01:50:30.324Z,8.73
2018-10-17T01:51:30.339Z,8.71
2018-10-17T01:52:30.594Z,8.69
2018-10-17T01:53:30.245Z,8.7
2018-10-17T01:54:30.252Z,8.7
2018-10-17T01:55:30.299Z,8.67
2018-10-17T01:56:30.348Z,8.56
2018-10-17T01:57:30.246Z,8.57
2018-10-17T01:58:30.308Z,8.67
2018-10-17T01:59:30.278Z,8.85
2018-10-17T02:00:30.349Z,8.82
2018-10-17T02:01:30.323Z,8.84
2018-10-17T02:02:30.258Z,8.84
2018-10-17T02:03:30.366Z,8.78
2018-10-17T02:04:30.260Z,8.81
2018-10-17T02:05:30.281Z,8.77
2018-10-17T02:06:30.281Z,8.7
2018-10-17T02:07:30.275Z,8.71
2018-10-17T02:08:30.333Z,8.57
2018-10-17T02:09:30.275Z,8.52
2018-10-17T02:10:30.260Z,8.71
2018-10-17T02:11:30.239Z,8.81
2018-10-17T02:12:30.420Z,8.7
2018-10-17T02:14:30.552Z,8.85
2018-10-17T02:15:30.400Z,8.79
2018-10-17T02:16:30.254Z,8.78
2018-10-17T02:17:30.236Z,8.72
2018-10-17T02:18:30.582Z,8.73
2018-10-17T02:19:30.429Z,8.74
2018-10-17T02:20:30.262Z,8.7
2018-10-17T02:21:30.295Z,8.63
2018-10-17T02:22:30.246Z,8.58
2018-10-17T02:23:30.331Z,8.74
2018-10-17T02:24:30.215Z,8.75
2018-10-17T02:25:30.264Z,8.77
2018-10-17T02:26:30.534Z,8.75
2018-10-17T02:27:30.231Z,8.75
2018-10-17T02:28:30.236Z,8.73
2018-10-17T02:29:30.448Z,8.72
2018-10-17T02:30:30.250Z,8.74
2018-10-17T02:31:30.277Z,8.71
2018-10-17T02:32:30.236Z,8.69
2018-10-17T02:33:30.224Z,8.71
2018-10-17T02:34:30.178Z,8.71
2018-10-17T02:35:30.194Z,8.7
2018-10-17T02:36:30.348Z,8.72
2018-10-17T02:37:30.456Z,8.74
2018-10-17T02:38:30.384Z,8.66
2018-10-17T02:39:30.568Z,8.68
2018-10-17T02:40:30.349Z,8.64
2018-10-17T02:41:30.244Z,8.61
2018-10-17T02:42:30.226Z,8.61
2018-10-17T02:43:30.337Z,8.58
2018-10-17T02:44:30.202Z,8.58
2018-10-17T02:45:30.203Z,8.55
2018-10-17T02:46:30.401Z,8.51
2018-10-17T02:47:30.255Z,8.43
2018-10-17T02:48:30.226Z,8.45
2018-10-17T02:49:30.573Z,8.45
2018-10-17T02:50:30.272Z,8.39
2018-10-17T02:51:30.265Z,8.43
2018-10-17T02:52:30.285Z,8.41
2018-10-17T02:53:30.197Z,8.4
2018-10-17T02:54:30.188Z,8.39
2018-10-17T02:55:30.181Z,8.37
2018-10-17T02:56:30.310Z,8.36
2018-10-17T02:57:30.203Z,8.33
2018-10-17T02:58:30.275Z,8.31
2018-10-17T02:59:30.207Z,8.35
2018-10-17T03:00:30.188Z,8.36
2018-10-17T03:01:30.412Z,8.36
2018-10-17T03:02:30.305Z,8.35
2018-10-17T03:03:30.569Z,8.27
2018-10-17T03:04:34.240Z,8.29
2018-10-17T03:05:30.271Z,8.31
2018-10-17T03:06:30.462Z,8.21
2018-10-17T03:07:30.413Z,8.21
2018-10-17T03:08:30.202Z,8.2
2018-10-17T03:09:30.482Z,8.19
2018-10-17T03:10:30.208Z,8.25
2018-10-17T03:11:30.203Z,8.28
2018-10-17T03:12:30.223Z,8.23
2018-10-17T03:13:30.197Z,8.2
2018-10-17T03:14:30.232Z,8.15
2018-10-17T03:15:30.191Z,8.21
2018-10-17T03:16:30.153Z,8.17
2018-10-17T03:17:30.163Z,8.15
2018-10-17T03:18:30.355Z,8.16
2018-10-17T03:19:30.149Z,8.16
2018-10-17T03:20:30.151Z,8.13
2018-10-17T03:21:30.186Z,8.11
2018-10-17T03:22:30.162Z,8.13
2018-10-17T03:23:30.416Z,8.11
2018-10-17T03:24:30.168Z,8.15
2018-10-17T03:25:30.190Z,8.08
2018-10-17T03:26:30.214Z,8.02
2018-10-17T03:27:30.166Z,8.03
2018-10-17T03:28:30.130Z,8.06
2018-10-17T03:29:30.116Z,8.12
2018-10-17T03:30:30.445Z,8.13
2018-10-17T03:31:31.313Z,8.14
2018-10-17T03:32:30.141Z,8.12
2018-10-17T03:33:30.197Z,8.03
2018-10-17T03:34:30.139Z,8.04
2018-10-17T03:35:30.289Z,8.11
2018-10-17T03:36:30.139Z,8.14
2018-10-17T03:37:30.186Z,8.15
2018-10-17T03:38:30.148Z,8.14
2018-10-17T03:39:30.125Z,8.09
2018-10-17T03:40:30.165Z,8.09
2018-10-17T03:41:30.170Z,8.1
2018-10-17T03:42:30.177Z,8.06
2018-10-17T03:43:30.112Z,8.01
2018-10-17T03:44:30.140Z,7.98
2018-10-17T03:45:30.560Z,8.02
2018-10-17T03:46:30.121Z,8.04
2018-10-17T03:47:30.166Z,8.07
2018-10-17T03:48:30.172Z,8.06
2018-10-17T03:49:30.432Z,8.09
2018-10-17T03:50:30.253Z,8.07
2018-10-17T03:51:30.071Z,8.08
2018-10-17T03:52:30.128Z,8.11
2018-10-17T03:53:30.106Z,8.13
2018-10-17T03:54:30.118Z,8.13
2018-10-17T03:55:30.211Z,8.12
2018-10-17T03:56:30.153Z,8.13
2018-10-17T03:57:30.214Z,8.16
2018-10-17T03:58:30.227Z,8.17
2018-10-17T03:59:31.772Z,8.17
2018-10-17T04:00:30.077Z,8.12
2018-10-17T04:01:30.104Z,8.09
2018-10-17T04:02:30.471Z,8.1
2018-10-17T04:03:30.146Z,8.07
2018-10-17T04:04:30.118Z,8.08
2018-10-17T04:05:30.252Z,8.06
2018-10-17T04:06:30.204Z,8.05
2018-10-17T04:07:30.124Z,8.04
2018-10-17T04:08:30.336Z,8.05
2018-10-17T04:09:30.467Z,8.11
2018-10-17T04:10:30.618Z,8.2
2018-10-17T04:11:30.203Z,8.12
2018-10-17T04:12:30.121Z,8.1
2018-10-17T04:13:30.177Z,8.05
2018-10-17T04:14:30.131Z,8.08
2018-10-17T04:15:30.190Z,8.03
2018-10-17T04:16:30.157Z,7.98
2018-10-17T04:17:30.202Z,7.95
2018-10-17T04:18:30.218Z,7.96
2018-10-17T04:19:30.614Z,7.97
2018-10-17T04:20:30.169Z,7.95
2018-10-17T04:21:30.074Z,7.99
2018-10-17T04:22:30.603Z,8.01
2018-10-17T04:23:30.142Z,8.02
2018-10-17T04:24:30.156Z,8.17
2018-10-17T04:25:30.184Z,8.24
2018-10-17T04:26:30.068Z,8.15
2018-10-17T04:27:30.193Z,8.15
2018-10-17T04:28:30.490Z,8.17
2018-10-17T04:29:30.206Z,8.12
2018-10-17T04:30:30.113Z,8.11
2018-10-17T04:31:30.341Z,8.12
2018-10-17T04:32:30.681Z,8.16
2018-10-17T04:33:30.344Z,8.22
2018-10-17T04:34:30.128Z,8.2
2018-10-17T04:35:30.073Z,8.14
2018-10-17T04:36:30.141Z,8.16
2018-10-17T04:37:30.612Z,8.15
2018-10-17T04:38:30.611Z,8.11
2018-10-17T04:39:30.181Z,8.13
2018-10-17T04:40:30.057Z,8.21
2018-10-17T04:41:30.452Z,8.24
2018-10-17T04:42:30.038Z,8.19
2018-10-17T04:43:30.341Z,8.12
2018-10-17T04:44:30.144Z,8.12
2018-10-17T04:45:30.088Z,8.21
2018-10-17T04:46:30.043Z,8.13
2018-10-17T04:47:30.296Z,8.15
2018-10-17T04:48:30.149Z,8.07
2018-10-17T04:49:30.070Z,8.13
2018-10-17T04:50:30.179Z,8.05
2018-10-17T04:51:30.056Z,8.16
2018-10-17T04:52:30.409Z,8.14
2018-10-17T04:53:30.301Z,8.07
2018-10-17T04:54:30.089Z,8.1
2018-10-17T04:55:30.043Z,8.03
2018-10-17T04:56:29.996Z,8.03
2018-10-17T04:57:30.080Z,7.95
2018-10-17T04:58:30.086Z,7.92
2018-10-17T04:59:30.044Z,7.86
2018-10-17T05:00:30.161Z,7.88
2018-10-17T05:01:30.055Z,7.87
2018-10-17T05:02:30.010Z,7.83
2018-10-17T05:03:29.990Z,7.9
2018-10-17T05:04:30.307Z,7.93
2018-10-17T05:05:30.030Z,7.93
2018-10-17T05:06:29.990Z,7.89
2018-10-17T05:07:30.072Z,7.88
2018-10-17T05:08:30.070Z,7.87
2018-10-17T05:09:29.616Z,7.9
2018-10-17T05:10:30.235Z,7.83
2018-10-17T05:11:30.133Z,7.84
2018-10-17T05:12:30.085Z,7.83
2018-10-17T05:13:30.254Z,7.85
2018-10-17T05:14:30.096Z,7.86
2018-10-17T05:15:30.095Z,7.86
2018-10-17T05:16:30.458Z,7.9
2018-10-17T05:17:30.343Z,7.86
2018-10-17T05:18:30.267Z,7.86
2018-10-17T05:19:30.259Z,7.81
2018-10-17T05:20:30.141Z,7.8
2018-10-17T05:21:30.089Z,7.83
2018-10-17T05:22:30.277Z,7.83
2018-10-17T05:23:30.024Z,7.77
2018-10-17T05:24:30.218Z,7.72
2018-10-17T05:25:29.874Z,7.66
2018-10-17T05:26:30.104Z,7.64
2018-10-17T05:27:30.001Z,7.62
2018-10-17T05:28:30.083Z,7.62
2018-10-17T05:29:30.110Z,7.58
2018-10-17T05:30:30.062Z,7.57
2018-10-17T05:31:30.371Z,7.57
2018-10-17T05:32:30.267Z,7.53
2018-10-17T05:33:30.046Z,7.59
2018-10-17T05:34:30.043Z,7.6
2018-10-17T05:35:30.096Z,7.58
2018-10-17T05:36:29.965Z,7.55
2018-10-17T05:37:30.527Z,7.58
2018-10-17T05:38:30.089Z,7.59
2018-10-17T05:39:29.951Z,7.58
2018-10-17T05:40:30.071Z,7.56
2018-10-17T05:41:29.992Z,7.59
2018-10-17T05:42:30.070Z,7.63
2018-10-17T05:43:30.019Z,7.61
2018-10-17T05:44:30.559Z,7.63
2018-10-17T05:45:30.160Z,7.63
2018-10-17T05:46:30.150Z,7.61
2018-10-17T05:47:30.065Z,7.63
2018-10-17T05:48:30.081Z,7.6
2018-10-17T05:49:29.961Z,7.6
2018-10-17T05:50:29.848Z,7.6
2018-10-17T05:51:30.075Z,7.6
2018-10-17T05:52:30.001Z,7.6
2018-10-17T05:53:30.028Z,7.57
2018-10-17T05:54:30.117Z,7.56
2018-10-17T05:55:30.266Z,7.56
2018-10-17T05:56:29.828Z,7.56
2018-10-17T05:57:30.056Z,7.58
2018-10-17T05:58:30.132Z,7.58
2018-10-17T05:59:29.961Z,7.57
2018-10-17T06:00:30.023Z,7.59
2018-10-17T06:01:30.552Z,7.57
2018-10-17T06:02:30.888Z,7.59
2018-10-17T06:03:29.966Z,7.62
2018-10-17T06:04:30.333Z,7.58
2018-10-17T06:05:30.298Z,7.57
2018-10-17T06:06:29.887Z,7.58
2018-10-17T06:07:30.045Z,7.6
2018-10-17T06:08:29.957Z,7.65
2018-10-17T06:09:30.206Z,7.68
2018-10-17T06:10:30.038Z,7.85
2018-10-17T06:11:30.097Z,7.75
2018-10-17T06:12:30.282Z,7.72
2018-10-17T06:13:30.193Z,7.82
2018-10-17T06:14:30.361Z,7.78
2018-10-17T06:15:30.048Z,7.86
2018-10-17T06:16:30.183Z,7.92
2018-10-17T06:17:30.758Z,7.88
2018-10-17T06:18:30.024Z,7.85
2018-10-17T06:19:29.922Z,7.9
2018-10-17T06:20:29.922Z,7.9
2018-10-17T06:21:29.934Z,7.87
2018-10-17T06:22:30.020Z,7.83
2018-10-17T06:23:29.900Z,7.86
2018-10-17T06:24:30.304Z,7.89
2018-10-17T06:25:30.335Z,7.87
2018-10-17T06:26:30.385Z,7.94
2018-10-17T06:27:30.037Z,7.91
2018-10-17T06:28:30.320Z,7.92
2018-10-17T06:29:29.914Z,7.96
2018-10-17T06:30:30.154Z,8.01
2018-10-17T06:31:29.929Z,8.05
2018-10-17T06:32:29.882Z,8.01
2018-10-17T06:33:29.898Z,8.02
2018-10-17T06:34:30.256Z,8.07
2018-10-17T06:35:29.875Z,8.01
2018-10-17T06:36:30.187Z,8.09
2018-10-17T06:37:29.938Z,8.07
2018-10-17T06:38:29.881Z,8.12
2018-10-17T06:39:29.902Z,8.14
2018-10-17T06:40:29.898Z,8.17
2018-10-17T06:41:29.963Z,8.11
2018-10-17T06:42:29.903Z,8.21
2018-10-17T06:43:30.545Z,8.21
2018-10-17T06:44:29.896Z,8.33
2018-10-17T06:45:30.151Z,8.35
2018-10-17T06:46:30.035Z,8.4
2018-10-17T06:47:29.969Z,8.43
2018-10-17T06:48:30.030Z,8.48
2018-10-17T06:49:30.272Z,8.49
2018-10-17T06:50:29.889Z,8.54
2018-10-17T06:51:29.890Z,8.47
2018-10-17T06:52:30.207Z,8.52
2018-10-17T06:53:29.964Z,8.54
2018-10-17T06:54:31.054Z,8.63
2018-10-17T06:55:29.845Z,8.59
2018-10-17T06:56:29.903Z,8.64
2018-10-17T06:57:30.252Z,8.77
2018-10-17T06:58:29.893Z,8.78
2018-10-17T06:59:29.865Z,8.7
2018-10-17T07:00:29.889Z,8.79
2018-10-17T07:01:30.075Z,8.82
2018-10-17T07:02:29.886Z,8.79
2018-10-17T07:03:30.178Z,8.8
2018-10-17T07:04:30.073Z,8.79
2018-10-17T07:05:29.857Z,8.86
2018-10-17T07:06:30.095Z,8.87
2018-10-17T07:07:30.160Z,9.04
2018-10-17T07:08:30.490Z,9.01
2018-10-17T07:09:30.128Z,9.1
2018-10-17T07:10:29.857Z,9.08
2018-10-17T07:11:30.120Z,9.24
2018-10-17T07:12:29.830Z,9.2
2018-10-17T07:13:29.931Z,9.14
2018-10-17T07:14:29.817Z,9.31
2018-10-17T07:15:31.031Z,9.31
2018-10-17T07:16:29.813Z,9.33
2018-10-17T07:17:30.067Z,9.49
2018-10-17T07:18:29.872Z,9.54
2018-10-17T07:19:29.829Z,9.56
2018-10-17T07:20:29.981Z,9.59
2018-10-17T07:21:29.948Z,9.58
2018-10-17T07:22:30.143Z,9.59
2018-10-17T07:23:29.842Z,9.64
2018-10-17T07:24:29.855Z,9.67
2018-10-17T07:25:29.832Z,9.72
2018-10-17T07:26:29.880Z,9.68
2018-10-17T07:27:29.910Z,9.67
2018-10-17T07:28:30.144Z,9.63
2018-10-17T07:29:31.478Z,9.64
2018-10-17T07:30:29.999Z,9.53
2018-10-17T07:31:29.844Z,9.55
2018-10-17T07:32:30.170Z,9.53
2018-10-17T07:33:29.806Z,9.46
2018-10-17T07:34:30.076Z,9.49
2018-10-17T07:35:30.440Z,9.51
2018-10-17T07:36:29.800Z,9.49
2018-10-17T07:37:30.080Z,9.52
2018-10-17T07:38:30.190Z,9.55
2018-10-17T07:39:29.833Z,9.57
2018-10-17T07:40:29.880Z,9.63
2018-10-17T07:41:29.828Z,9.64
2018-10-17T07:42:29.831Z,9.64
2018-10-17T07:43:29.841Z,9.68
2018-10-17T07:44:29.950Z,9.64
2018-10-17T07:45:30.132Z,9.69
2018-10-17T07:46:30.047Z,9.76
2018-10-17T07:47:29.841Z,9.8
2018-10-17T07:48:29.767Z,9.79
2018-10-17T07:49:29.825Z,9.73
2018-10-17T07:50:29.837Z,9.88
2018-10-17T07:51:29.772Z,9.86
2018-10-17T07:52:29.852Z,9.86
2018-10-17T07:53:30.771Z,9.9
2018-10-17T07:54:29.774Z,9.89
2018-10-17T07:55:29.788Z,10.01
2018-10-17T07:56:29.795Z,10.06
2018-10-17T07:57:29.804Z,10.17
2018-10-17T07:58:29.804Z,10.2
2018-10-17T07:59:30.022Z,10.19
2018-10-17T08:00:30.847Z,10.21
2018-10-17T08:01:29.765Z,10.19
2018-10-17T08:02:29.814Z,10.14
2018-10-17T08:03:30.090Z,10.16
2018-10-17T08:04:29.810Z,10.21
2018-10-17T08:05:29.851Z,10.23
2018-10-17T08:06:30.192Z,10.24
2018-10-17T08:07:29.876Z,10.24
2018-10-17T08:08:30.166Z,10.23
2018-10-17T08:09:29.775Z,10.23
2018-10-17T08:10:29.792Z,10.26
2018-10-17T08:11:29.806Z,10.35
2018-10-17T08:12:29.837Z,10.28
2018-10-17T08:13:29.815Z,10.31
2018-10-17T08:14:29.847Z,10.34
2018-10-17T08:15:29.735Z,10.34
2018-10-17T08:16:30.130Z,10.36
2018-10-17T08:17:29.915Z,10.4
2018-10-17T08:18:29.773Z,10.43
2018-10-17T08:19:29.730Z,10.48
2018-10-17T08:20:29.774Z,10.46
2018-10-17T08:21:30.595Z,10.55
2018-10-17T08:22:29.836Z,10.55
2018-10-17T08:23:30.117Z,10.49
2018-10-17T08:24:29.724Z,10.51
2018-10-17T08:25:29.761Z,10.58
2018-10-17T08:26:29.743Z,10.53
2018-10-17T08:27:30.752Z,10.55
2018-10-17T08:28:29.949Z,10.6
2018-10-17T08:29:29.763Z,10.57
2018-10-17T08:30:29.839Z,10.54
2018-10-17T08:31:29.752Z,10.55
2018-10-17T08:32:29.749Z,10.53
2018-10-17T08:33:30.486Z,10.56
2018-10-17T08:34:30.073Z,10.61
2018-10-17T08:35:31.502Z,10.64
2018-10-17T08:36:32.075Z,10.62
2018-10-17T08:37:33.683Z,10.66
2018-10-17T08:38:29.720Z,10.67
2018-10-17T08:39:29.785Z,10.71
2018-10-17T08:40:29.725Z,10.74
2018-10-17T08:41:29.878Z,10.74
2018-10-17T08:42:30.209Z,10.76
2018-10-17T08:43:29.867Z,10.74
2018-10-17T08:44:30.055Z,10.74
2018-10-17T08:45:29.806Z,10.75
2018-10-17T08:47:29.763Z,10.72
2018-10-17T08:48:29.994Z,10.79
2018-10-17T08:49:29.774Z,10.79
2018-10-17T08:50:30.038Z,10.83
2018-10-17T08:51:29.801Z,10.88
2018-10-17T08:52:29.696Z,10.83
2018-10-17T08:53:29.825Z,10.88
2018-10-17T08:54:29.806Z,10.89
2018-10-17T08:55:29.700Z,10.86
2018-10-17T08:56:29.843Z,10.92
2018-10-17T08:57:29.856Z,10.83
2018-10-17T08:58:29.797Z,10.95
2018-10-17T08:59:29.790Z,10.99
2018-10-17T09:00:29.896Z,11.01
2018-10-17T09:01:29.717Z,11
2018-10-17T09:02:29.812Z,11.03
2018-10-17T09:03:29.720Z,10.91
2018-10-17T09:04:29.673Z,11.01
2018-10-17T09:05:30.527Z,11.01
2018-10-17T09:06:29.986Z,11.07
2018-10-17T09:07:29.700Z,10.96
2018-10-17T09:08:29.811Z,11.03
2018-10-17T09:09:29.686Z,11.03
2018-10-17T09:10:29.667Z,11.06
2018-10-17T09:11:29.723Z,11.11
2018-10-17T09:12:29.693Z,11.18
2018-10-17T09:13:30.085Z,11.17
2018-10-17T09:14:29.691Z,11.09
2018-10-17T09:15:29.727Z,11.16
2018-10-17T09:16:30.043Z,11.16
2018-10-17T09:17:29.685Z,11.24
2018-10-17T09:18:29.673Z,11.24
2018-10-17T09:19:31.048Z,11.25
2018-10-17T09:20:31.629Z,11.29
2018-10-17T09:21:31.253Z,11.2
2018-10-17T09:22:30.258Z,11.24
2018-10-17T09:23:29.709Z,11.22
2018-10-17T09:24:29.730Z,11.2
2018-10-17T09:25:29.900Z,11.21
2018-10-17T09:26:29.671Z,11.19
2018-10-17T09:27:29.861Z,11.21
2018-10-17T09:28:29.713Z,11.3
2018-10-17T09:29:29.698Z,11.29
2018-10-17T09:30:31.267Z,11.31
2018-10-17T09:31:29.764Z,11.21
2018-10-17T09:32:29.789Z,11.23
2018-10-17T09:33:29.681Z,11.32
2018-10-17T09:34:29.648Z,11.43
2018-10-17T09:35:29.892Z,11.39
2018-10-17T09:36:29.768Z,11.41
2018-10-17T09:37:29.632Z,11.42
2018-10-17T09:38:29.695Z,11.35
2018-10-17T09:39:29.844Z,11.39
2018-10-17T09:40:29.674Z,11.33
2018-10-17T09:41:29.990Z,11.38
2018-10-17T09:42:29.813Z,11.46
2018-10-17T09:43:29.693Z,11.37
2018-10-17T09:44:29.784Z,11.41
2018-10-17T09:45:29.687Z,11.4
2018-10-17T09:46:29.635Z,11.48
2018-10-17T09:47:29.682Z,11.48
2018-10-17T09:48:29.755Z,11.43
2018-10-17T09:49:29.729Z,11.36
2018-10-17T09:50:29.767Z,11.4
2018-10-17T09:51:29.993Z,11.38
2018-10-17T09:52:29.773Z,11.44
2018-10-17T09:53:30.614Z,11.31
2018-10-17T09:54:29.783Z,11.24
2018-10-17T09:55:29.733Z,11.22
2018-10-17T09:56:29.803Z,11.34
2018-10-17T09:57:29.702Z,11.45
2018-10-17T09:58:29.759Z,11.41
2018-10-17T09:59:30.030Z,11.31
2018-10-17T10:00:29.664Z,11.25
2018-10-17T10:01:29.778Z,11.32
2018-10-17T10:02:30.465Z,11.25
2018-10-17T10:03:29.688Z,11.17
2018-10-17T10:04:29.662Z,11.22
2018-10-17T10:05:29.676Z,11.25
2018-10-17T10:06:29.780Z,11.09
2018-10-17T10:07:29.726Z,11.04
2018-10-17T10:08:29.674Z,11.11
2018-10-17T10:09:29.619Z,11.04
2018-10-17T10:10:29.734Z,11.21
2018-10-17T10:11:29.723Z,11.27
2018-10-17T10:12:29.678Z,11.33
2018-10-17T10:13:29.740Z,11.15
2018-10-17T10:14:29.772Z,11.28
2018-10-17T10:15:29.742Z,11.08
2018-10-17T10:16:29.697Z,11.27
2018-10-17T10:17:30.060Z,11.28
2018-10-17T10:18:29.669Z,11.13
2018-10-17T10:19:29.726Z,11.19
2018-10-17T10:20:29.739Z,11.28
2018-10-17T10:21:29.591Z,11.34
2018-10-17T10:22:35.889Z,11.33
2018-10-17T10:23:29.898Z,11.37
2018-10-17T10:24:30.403Z,11.45
2018-10-17T10:25:29.608Z,11.39
2018-10-17T10:26:29.640Z,11.41
2018-10-17T10:27:29.679Z,11.11
2018-10-17T10:28:30.406Z,11.06
2018-10-17T10:29:29.703Z,11.03
2018-10-17T10:30:29.662Z,11.25
2018-10-17T10:31:29.660Z,11.34
2018-10-17T10:32:29.748Z,11.29
2018-10-17T10:33:29.615Z,11.24
2018-10-17T10:34:29.629Z,11.2
2018-10-17T10:35:29.990Z,11.18
2018-10-17T10:36:29.586Z,11.28
2018-10-17T10:37:29.672Z,11.4
2018-10-17T10:38:29.588Z,11.37
2018-10-17T10:39:29.824Z,11.32
2018-10-17T10:40:30.020Z,11.31
2018-10-17T10:41:29.624Z,11.35
2018-10-17T10:42:29.636Z,11.41
2018-10-17T10:43:29.603Z,11.31
2018-10-17T10:45:30.006Z,11.21
2018-10-17T10:46:29.857Z,11.1
2018-10-17T10:47:29.594Z,11.27
2018-10-17T10:48:29.583Z,11.27
2018-10-17T10:49:29.588Z,11.34
2018-10-17T10:50:29.591Z,11.35
2018-10-17T10:51:29.961Z,11.32
2018-10-17T10:52:29.599Z,11.27
2018-10-17T10:53:29.637Z,11.29
2018-10-17T10:54:29.972Z,11.17
2018-10-17T10:55:29.542Z,11.23
2018-10-17T10:56:29.607Z,11.19
2018-10-17T10:57:29.729Z,11.21
2018-10-17T10:58:31.045Z,11.34
2018-10-17T10:59:31.119Z,11.37
2018-10-17T11:00:29.563Z,11.37
2018-10-17T11:01:29.757Z,11.17
2018-10-17T11:02:29.671Z,11.19
2018-10-17T11:03:29.886Z,11.3
2018-10-17T11:04:29.860Z,11.38
2018-10-17T11:05:31.604Z,11.18
2018-10-17T11:06:29.589Z,11.16
2018-10-17T11:07:29.575Z,11.12
2018-10-17T11:08:29.578Z,11.29
2018-10-17T11:09:29.637Z,11.22
2018-10-17T11:10:29.564Z,11.21
2018-10-17T11:11:29.777Z,11.22
2018-10-17T11:12:29.734Z,11.31
2018-10-17T11:13:29.537Z,11.21
2018-10-17T11:14:30.737Z,11.28
2018-10-17T11:15:29.679Z,11.29
2018-10-17T11:16:29.643Z,11.46
2018-10-17T11:17:29.638Z,11.4
2018-10-17T11:18:29.856Z,11.5
2018-10-17T11:19:29.154Z,11.47
2018-10-17T11:20:29.737Z,11.38
2018-10-17T11:21:29.499Z,11.31
2018-10-17T11:22:29.718Z,11.22
2018-10-17T11:23:29.492Z,11.28
2018-10-17T11:24:29.533Z,11.49
2018-10-17T11:25:29.601Z,11.42
2018-10-17T11:26:29.497Z,11.32
2018-10-17T11:27:29.950Z,11.34
2018-10-17T11:28:29.527Z,11.31
2018-10-17T11:29:29.553Z,11.44
2018-10-17T11:30:29.664Z,11.4
2018-10-17T11:31:30.079Z,11.34
2018-10-17T11:32:29.483Z,11.5
2018-10-17T11:33:29.642Z,11.53
2018-10-17T11:34:29.512Z,11.29
2018-10-17T11:35:29.474Z,11.29
2018-10-17T11:36:29.486Z,11.29
2018-10-17T11:37:30.333Z,11.23
2018-10-17T11:38:29.649Z,11.21
2018-10-17T11:39:29.610Z,11.19
2018-10-17T11:40:30.084Z,11.28
2018-10-17T11:41:30.028Z,11.26
2018-10-17T11:42:29.576Z,11.19
2018-10-17T11:43:29.659Z,11.27
2018-10-17T11:44:29.460Z,11.29
2018-10-17T11:45:29.512Z,11.14
2018-10-17T11:46:29.475Z,11.2
2018-10-17T11:47:29.851Z,11.2
2018-10-17T11:48:29.599Z,11.16
2018-10-17T11:49:29.660Z,11.19
2018-10-17T11:50:29.716Z,11.13
2018-10-17T11:51:29.594Z,11.22
2018-10-17T11:52:29.583Z,11.21
2018-10-17T11:53:29.602Z,11.26
2018-10-17T11:54:29.535Z,11.23
2018-10-17T11:55:29.450Z,11.16
2018-10-17T11:56:29.713Z,11.34
2018-10-17T11:57:29.504Z,11.57
2018-10-17T11:58:29.495Z,11.57
2018-10-17T11:59:29.700Z,11.43
2018-10-17T12:00:29.465Z,11.32
2018-10-17T12:01:29.557Z,11.37
2018-10-17T12:02:29.458Z,11.16
2018-10-17T12:03:29.907Z,11.19
2018-10-17T12:04:31.245Z,11.2
2018-10-17T12:05:32.433Z,11.22
2018-10-17T12:06:30.553Z,11.46
2018-10-17T12:07:29.488Z,11.24
2018-10-17T12:08:29.558Z,11.45
2018-10-17T12:09:29.584Z,11.37
2018-10-17T12:10:29.452Z,11.23
2018-10-17T12:11:30.510Z,11.22
2018-10-17T12:12:29.683Z,11.29
2018-10-17T12:13:29.608Z,11.39
2018-10-17T12:14:29.445Z,11.35
2018-10-17T12:15:29.559Z,11.25
2018-10-17T12:16:29.521Z,11.4
2018-10-17T12:17:29.450Z,11.25
2018-10-17T12:18:29.534Z,11.26
2018-10-17T12:19:29.510Z,11.26
2018-10-17T12:20:29.468Z,11.3
2018-10-17T12:21:30.260Z,11.35
2018-10-17T12:22:29.485Z,11.34
2018-10-17T12:23:29.617Z,11.46
2018-10-17T12:24:29.465Z,11.57
2018-10-17T12:25:29.515Z,11.53
2018-10-17T12:26:29.407Z,11.59
2018-10-17T12:27:29.537Z,11.53
2018-10-17T12:28:30.428Z,11.33
2018-10-17T12:29:29.467Z,11.41
2018-10-17T12:30:29.872Z,11.39
2018-10-17T12:31:29.447Z,11.34
2018-10-17T12:32:29.542Z,11.24
2018-10-17T12:33:29.425Z,11.32
2018-10-17T12:34:29.521Z,11.22
2018-10-17T12:35:29.451Z,11.32
2018-10-17T12:36:29.447Z,11.33
2018-10-17T12:37:29.510Z,11.33
2018-10-17T12:38:29.838Z,11.23
2018-10-17T12:39:30.712Z,11.32
2018-10-17T12:40:30.699Z,11.35
2018-10-17T12:41:30.072Z,11.27
2018-10-17T12:42:29.459Z,11.34
2018-10-17T12:43:29.466Z,11.35
2018-10-17T12:44:29.556Z,11.3
2018-10-17T12:45:29.710Z,11.3
2018-10-17T12:46:29.778Z,11.25
2018-10-17T12:47:29.524Z,11.27
2018-10-17T12:48:29.443Z,11.14
2018-10-17T12:49:29.502Z,11.25
2018-10-17T12:50:29.463Z,11.2
2018-10-17T12:51:29.408Z,11.13
2018-10-17T12:52:30.223Z,11.35
2018-10-17T12:53:29.985Z,11.38
2018-10-17T12:54:29.521Z,11.38
2018-10-17T12:55:29.531Z,11.43
2018-10-17T12:56:29.768Z,11.41
2018-10-17T12:57:29.468Z,11.25
2018-10-17T12:58:29.660Z,11.29
2018-10-17T12:59:29.459Z,11.44
2018-10-17T13:00:29.453Z,11.38
2018-10-17T13:01:29.555Z,11.47
2018-10-17T13:02:29.491Z,11.67
2018-10-17T13:03:29.360Z,11.78
2018-10-17T13:04:29.565Z,11.8
2018-10-17T13:05:29.430Z,11.77
2018-10-17T13:07:29.549Z,11.69
2018-10-17T13:08:29.573Z,11.56
2018-10-17T13:09:29.670Z,11.6
2018-10-17T13:10:29.663Z,11.72
2018-10-17T13:11:30.055Z,11.58
2018-10-17T13:12:29.380Z,11.52
2018-10-17T13:13:29.415Z,11.52
2018-10-17T13:14:30.555Z,11.53
2018-10-17T13:15:29.637Z,11.51
2018-10-17T13:16:29.436Z,11.58